createdAt,value
2022-08-14T00:02:01.416Z,99.90
2022-08-14T00:04:32.115Z,99.90
2022-08-14T00:07:06.017Z,99.90
2022-08-14T00:09:33.189Z,99.90
2022-08-14T00:12:00.135Z,99.90
2022-08-14T00:14:28.231Z,99.90
2022-08-14T00:16:55.970Z,99.90
2022-08-14T00:19:23.395Z,99.90
2022-08-14T00:21:51.982Z,99.90
2022-08-14T00:24:28.223Z,99.90
2022-08-14T00:26:57.039Z,99.90
2022-08-14T00:29:25.693Z,99.90
2022-08-14T00:31:56.638Z,99.90
2022-08-14T00:34:36.320Z,99.90
2022-08-14T00:37:05.759Z,99.90
2022-08-14T00:39:34.631Z,99.90
2022-08-14T00:42:02.221Z,99.90
2022-08-14T00:44:32.897Z,99.90
2022-08-14T00:47:10.696Z,99.90
2022-08-14T00:49:43.497Z,99.90
2022-08-14T00:52:17.683Z,99.90
2022-08-14T00:54:47.812Z,99.90
2022-08-14T00:57:15.004Z,99.90
2022-08-14T00:59:41.793Z,99.90
2022-08-14T01:02:09.518Z,99.90
2022-08-14T01:04:54.478Z,99.90
2022-08-14T01:07:23.645Z,99.90
2022-08-14T01:09:53.408Z,99.90
2022-08-14T01:12:27.230Z,99.90
2022-08-14T01:14:58.785Z,99.90
2022-08-14T01:17:49.464Z,99.90
2022-08-14T01:20:39.239Z,99.90
2022-08-14T01:23:16.641Z,99.90
2022-08-14T01:25:48.803Z,99.90
2022-08-14T01:28:46.516Z,99.90
2022-08-14T01:31:05.956Z,99.90
2022-08-14T01:33:59.271Z,99.90
2022-08-14T01:36:22.911Z,99.90
2022-08-14T01:38:51.502Z,99.90
2022-08-14T01:41:23.069Z,99.90
2022-08-14T01:44:02.221Z,99.90
2022-08-14T01:46:33.552Z,99.90
2022-08-14T01:49:07.672Z,99.90
2022-08-14T01:51:35.298Z,99.90
2022-08-14T01:54:15.839Z,99.90
2022-08-14T01:56:45.209Z,99.90
2022-08-14T01:59:18.284Z,99.90
2022-08-14T02:01:51.494Z,99.90
2022-08-14T02:04:54.935Z,99.90
2022-08-14T02:07:27.216Z,99.90
2022-08-14T02:10:13.146Z,99.90
2022-08-14T02:12:54.065Z,99.90
2022-08-14T02:15:24.771Z,99.90
2022-08-14T02:17:51.935Z,99.90
2022-08-14T02:20:23.808Z,99.90
2022-08-14T02:22:54.550Z,99.90
2022-08-14T02:25:22.515Z,99.90
2022-08-14T02:28:22.234Z,99.90
2022-08-14T02:30:38.334Z,99.90
2022-08-14T02:33:07.215Z,99.90
2022-08-14T02:35:34.381Z,99.90
2022-08-14T02:38:11.443Z,99.90
2022-08-14T02:40:39.207Z,99.90
2022-08-14T02:43:07.985Z,99.90
2022-08-14T02:45:38.322Z,99.90
2022-08-14T02:49:02.508Z,99.90
2022-08-14T02:51:00.847Z,99.90
2022-08-14T02:53:29.250Z,99.90
2022-08-14T02:56:03.173Z,99.90
2022-08-14T02:58:47.873Z,99.90
2022-08-14T03:01:17.436Z,99.90
2022-08-14T03:03:48.311Z,99.90
2022-08-14T03:06:20.661Z,99.90
2022-08-14T03:09:02.157Z,99.90
2022-08-14T03:11:35.229Z,99.90
2022-08-14T03:14:02.148Z,99.90
2022-08-14T03:16:35.706Z,99.90
2022-08-14T03:19:09.594Z,99.90
2022-08-14T03:21:39.830Z,99.90
2022-08-14T03:24:16.587Z,99.90
2022-08-14T03:26:57.475Z,99.90
2022-08-14T03:29:26.315Z,99.90
2022-08-14T03:31:53.876Z,99.90
2022-08-14T03:34:24.965Z,99.90
2022-08-14T03:37:39.531Z,99.90
2022-08-14T03:39:57.382Z,99.90
2022-08-14T03:42:25.165Z,99.90
2022-08-14T03:45:18.482Z,99.90
2022-08-14T03:47:56.155Z,99.90
2022-08-14T03:50:30.736Z,99.90
2022-08-14T03:53:01.765Z,99.90
2022-08-14T03:55:30.646Z,99.90
2022-08-14T03:57:58.127Z,99.90
2022-08-14T04:00:40.644Z,99.90
2022-08-14T04:03:15.402Z,99.90
2022-08-14T04:05:49.090Z,99.90
2022-08-14T04:08:23.125Z,99.90
2022-08-14T04:10:57.502Z,99.90
2022-08-14T04:13:25.026Z,99.90
2022-08-14T04:15:56.247Z,99.90
2022-08-14T04:18:30.103Z,99.90
2022-08-14T04:20:58.600Z,99.90
2022-08-14T04:23:29.465Z,99.90
2022-08-14T04:26:01.518Z,99.90
2022-08-14T04:29:07.188Z,99.90
2022-08-14T04:31:16.139Z,99.90
2022-08-14T04:33:43.187Z,99.90
2022-08-14T04:36:16.111Z,99.90
2022-08-14T04:39:03.553Z,99.90
2022-08-14T04:41:49.204Z,99.90
2022-08-14T04:44:26.688Z,99.90
2022-08-14T04:47:22.600Z,99.90
2022-08-14T04:49:57.382Z,99.90
2022-08-14T04:52:25.303Z,99.90
2022-08-14T04:54:52.414Z,99.90
2022-08-14T04:57:21.921Z,99.90
2022-08-14T04:59:50.810Z,99.90
2022-08-14T05:02:18.140Z,99.90
2022-08-14T05:04:56.773Z,99.90
2022-08-14T05:07:46.465Z,99.90
2022-08-14T05:10:16.595Z,99.90
2022-08-14T05:13:13.652Z,99.90
2022-08-14T05:15:39.391Z,99.90
2022-08-14T05:18:17.767Z,99.90
2022-08-14T05:22:00.579Z,99.90
2022-08-14T05:23:55.748Z,99.90
2022-08-14T05:26:23.812Z,99.90
2022-08-14T05:28:50.763Z,99.90
2022-08-14T05:31:20.370Z,99.90
2022-08-14T05:33:54.936Z,99.90
2022-08-14T05:36:25.649Z,99.90
2022-08-14T05:38:54.278Z,99.90
2022-08-14T05:41:22.392Z,99.90
2022-08-14T05:43:51.164Z,99.90
2022-08-14T05:46:22.868Z,99.90
2022-08-14T05:48:51.749Z,99.90
2022-08-14T05:51:18.937Z,99.90
2022-08-14T05:54:01.711Z,99.90
2022-08-14T05:56:32.833Z,99.90
2022-08-14T05:59:03.987Z,99.90
2022-08-14T06:01:31.605Z,99.90
2022-08-14T06:04:01.792Z,99.90
2022-08-14T06:06:36.421Z,99.90
2022-08-14T06:09:05.219Z,99.90
2022-08-14T06:11:31.956Z,99.90
2022-08-14T06:13:59.425Z,99.90
2022-08-14T06:16:26.409Z,99.90
2022-08-14T06:18:54.309Z,99.90
2022-08-14T06:21:26.446Z,99.90
2022-08-14T06:23:53.289Z,99.90
2022-08-14T06:26:22.179Z,99.90
2022-08-14T06:28:52.387Z,99.90
2022-08-14T06:31:20.882Z,99.90
2022-08-14T06:35:09.438Z,99.90
2022-08-14T06:36:36.706Z,99.90
2022-08-14T06:39:03.709Z,99.90
2022-08-14T06:41:56.772Z,99.90
2022-08-14T06:44:22.030Z,99.90
2022-08-14T06:46:57.742Z,98.90
2022-08-14T06:49:27.157Z,99.90
2022-08-14T06:51:54.517Z,96.40
2022-08-14T06:54:21.486Z,95.30
2022-08-14T06:56:54.154Z,94.20
2022-08-14T06:59:21.410Z,93.20
2022-08-14T07:02:13.190Z,91.80
2022-08-14T07:04:59.056Z,90.90
2022-08-14T07:07:28.672Z,90.30
2022-08-14T07:09:55.910Z,90.00
2022-08-14T07:12:34.828Z,89.30
2022-08-14T07:15:10.994Z,89.40
2022-08-14T07:17:52.073Z,89.10
2022-08-14T07:23:07.297Z,85.90
2022-08-14T07:25:37.553Z,85.80
2022-08-14T07:28:21.287Z,85.00
2022-08-14T07:30:51.581Z,83.10
2022-08-14T07:33:20.753Z,83.80
2022-08-14T07:35:57.910Z,83.80
2022-08-14T07:38:33.567Z,83.60
2022-08-14T07:41:12.035Z,83.30
2022-08-14T07:43:42.496Z,82.70
2022-08-14T07:46:09.354Z,82.30
2022-08-14T07:48:40.734Z,81.40
2022-08-14T07:51:10.801Z,80.80
2022-08-14T07:53:40.544Z,80.40
2022-08-14T07:56:21.695Z,80.00
2022-08-14T07:58:55.216Z,79.60
2022-08-14T08:01:27.697Z,79.40
2022-08-14T08:04:00.055Z,79.10
2022-08-14T08:06:28.265Z,78.90
2022-08-14T08:09:01.038Z,78.80
2022-08-14T08:11:35.015Z,79.30
2022-08-14T08:14:10.344Z,80.10
2022-08-14T08:16:43.559Z,79.40
2022-08-14T08:19:12.680Z,79.30
2022-08-14T08:21:43.739Z,78.50
2022-08-14T08:24:11.273Z,78.70
2022-08-14T08:26:42.021Z,78.00
2022-08-14T08:29:09.631Z,77.20
2022-08-14T08:31:55.753Z,76.80
2022-08-14T08:34:23.786Z,75.80
2022-08-14T08:36:51.699Z,76.40
2022-08-14T08:39:22.444Z,76.20
2022-08-14T08:41:53.221Z,75.20
2022-08-14T08:44:32.342Z,75.10
2022-08-14T08:47:06.115Z,74.50
2022-08-14T08:49:52.601Z,73.80
2022-08-14T08:52:29.181Z,73.50
2022-08-14T08:54:58.732Z,74.40
2022-08-14T08:57:26.024Z,73.70
2022-08-14T08:59:55.058Z,73.80
2022-08-14T09:02:25.986Z,73.60
2022-08-14T09:05:02.310Z,73.20
2022-08-14T09:07:30.526Z,73.30
2022-08-14T09:10:00.030Z,73.60
2022-08-14T09:12:32.370Z,74.30
2022-08-14T09:15:11.268Z,73.90
2022-08-14T09:17:41.494Z,74.10
2022-08-14T09:20:11.623Z,74.60
2022-08-14T09:22:48.220Z,74.00
2022-08-14T09:25:17.035Z,73.10
2022-08-14T09:27:46.721Z,72.90
2022-08-14T09:30:32.121Z,72.90
2022-08-14T09:33:08.919Z,72.90
2022-08-14T09:36:02.864Z,73.50
2022-08-14T09:38:32.435Z,73.20
2022-08-14T09:41:11.788Z,73.00
2022-08-14T09:44:05.250Z,73.60
2022-08-14T09:46:34.364Z,74.10
2022-08-14T09:49:02.788Z,75.20
2022-08-14T09:51:32.605Z,74.50
2022-08-14T09:54:22.770Z,74.10
2022-08-14T09:56:57.347Z,75.50
2022-08-14T09:59:28.003Z,83.60
2022-08-14T10:01:57.249Z,74.30
2022-08-14T10:04:35.738Z,74.60
2022-08-14T10:07:05.959Z,73.80
2022-08-14T10:09:46.112Z,73.40
2022-08-14T10:12:53.157Z,74.50
2022-08-14T10:15:25.156Z,75.90
2022-08-14T10:18:08.149Z,75.00
2022-08-14T10:20:45.934Z,73.90
2022-08-14T10:23:20.807Z,74.00
2022-08-14T10:25:57.407Z,73.70
2022-08-14T10:29:03.534Z,73.70
2022-08-14T10:31:25.382Z,73.90
2022-08-14T10:34:12.994Z,72.90
2022-08-14T10:36:47.799Z,71.70
2022-08-14T10:39:20.933Z,72.40
2022-08-14T10:41:49.405Z,73.30
2022-08-14T10:44:25.017Z,74.30
2022-08-14T10:47:40.288Z,74.10
2022-08-14T10:49:57.628Z,72.30
2022-08-14T10:52:31.779Z,72.10
2022-08-14T10:55:12.789Z,73.40
2022-08-14T10:57:51.587Z,72.30
2022-08-14T11:00:30.166Z,71.80
2022-08-14T11:03:11.066Z,72.20
2022-08-14T11:05:41.339Z,72.90
2022-08-14T11:08:12.664Z,72.90
2022-08-14T11:10:47.363Z,74.50
2022-08-14T11:13:24.174Z,73.20
2022-08-14T11:15:52.691Z,72.00
2022-08-14T11:18:32.097Z,71.10
2022-08-14T11:21:06.693Z,70.50
2022-08-14T11:23:38.545Z,72.00
2022-08-14T11:26:08.935Z,71.60
2022-08-14T11:28:47.258Z,71.30
2022-08-14T11:31:22.197Z,70.60
2022-08-14T11:33:56.846Z,71.30
2022-08-14T11:36:56.901Z,70.00
2022-08-14T11:39:23.192Z,69.20
2022-08-14T11:42:57.348Z,69.50
2022-08-14T11:44:53.889Z,70.10
2022-08-14T11:47:27.249Z,70.50
2022-08-14T11:50:33.657Z,69.90
2022-08-14T11:53:04.918Z,69.00
2022-08-14T11:55:38.316Z,69.80
2022-08-14T11:58:10.962Z,68.90
2022-08-14T12:00:53.657Z,67.60
2022-08-14T12:03:27.191Z,68.60
2022-08-14T12:06:27.753Z,67.70
2022-08-14T12:08:56.917Z,67.60
2022-08-14T12:11:26.686Z,66.50
2022-08-14T12:13:56.002Z,64.80
2022-08-14T12:16:23.101Z,63.70
2022-08-14T12:18:50.870Z,63.50
2022-08-14T12:21:22.287Z,63.60
2022-08-14T12:24:02.541Z,64.20
2022-08-14T12:26:39.178Z,63.20
2022-08-14T12:29:13.254Z,63.60
2022-08-14T12:31:44.672Z,63.90
2022-08-14T12:34:20.323Z,63.80
2022-08-14T12:36:47.776Z,63.50
2022-08-14T12:39:21.250Z,64.40
2022-08-14T12:42:00.329Z,64.30
2022-08-14T12:44:37.299Z,64.00
2022-08-14T12:47:13.344Z,63.70
2022-08-14T12:49:58.392Z,63.90
2022-08-14T12:52:43.071Z,63.90
2022-08-14T12:55:21.135Z,64.10
2022-08-14T12:57:53.162Z,63.10
2022-08-14T13:00:25.479Z,62.60
2022-08-14T13:02:56.813Z,62.50
2022-08-14T13:05:31.999Z,62.40
2022-08-14T13:08:04.489Z,62.70
2022-08-14T13:10:52.035Z,63.50
2022-08-14T13:13:20.668Z,64.60
2022-08-14T13:15:57.255Z,64.60
2022-08-14T13:18:28.171Z,64.40
2022-08-14T13:21:01.038Z,63.90
2022-08-14T13:23:36.229Z,64.40
2022-08-14T13:26:04.611Z,65.90
2022-08-14T13:28:37.528Z,66.60
2022-08-14T13:31:11.331Z,67.30
2022-08-14T13:33:40.738Z,67.40
2022-08-14T13:36:10.177Z,67.60
2022-08-14T13:38:51.159Z,66.10
2022-08-14T13:41:27.713Z,64.30
2022-08-14T13:44:00.279Z,63.00
2022-08-14T13:46:27.955Z,62.30
2022-08-14T13:48:56.435Z,64.20
2022-08-14T13:51:29.755Z,65.00
2022-08-14T13:54:10.108Z,62.90
2022-08-14T13:56:39.651Z,62.60
2022-08-14T13:59:07.066Z,62.60
2022-08-14T14:01:43.078Z,62.80
2022-08-14T14:04:19.012Z,62.60
2022-08-14T14:06:49.063Z,62.40
2022-08-14T14:09:23.688Z,62.30
2022-08-14T14:11:53.071Z,62.40
2022-08-14T14:14:45.123Z,62.70
2022-08-14T14:17:12.509Z,62.60
2022-08-14T14:19:41.480Z,62.80
2022-08-14T14:22:09.793Z,62.40
2022-08-14T14:24:36.735Z,61.40
2022-08-14T14:27:30.047Z,62.60
2022-08-14T14:29:55.448Z,61.70
2022-08-14T14:32:32.003Z,62.50
2022-08-14T14:35:02.746Z,61.60
2022-08-14T14:37:30.544Z,63.10
2022-08-14T14:40:52.590Z,62.20
2022-08-14T14:42:53.338Z,61.70
2022-08-14T14:45:23.919Z,62.10
2022-08-14T14:47:59.173Z,63.20
2022-08-14T14:50:26.550Z,62.60
2022-08-14T14:53:12.412Z,63.00
2022-08-14T14:55:43.055Z,63.00
2022-08-14T14:58:30.936Z,62.40
2022-08-14T15:01:03.905Z,62.60
2022-08-14T15:03:36.805Z,63.40
2022-08-14T15:06:04.839Z,63.60
2022-08-14T15:08:56.920Z,63.80
2022-08-14T15:11:20.039Z,64.00
2022-08-14T15:13:53.262Z,65.50
2022-08-14T15:16:20.625Z,65.80
2022-08-14T15:18:49.122Z,67.70
2022-08-14T15:21:16.073Z,65.60
2022-08-14T15:23:44.188Z,65.20
2022-08-14T15:26:24.245Z,64.00
2022-08-14T15:29:05.885Z,63.60
2022-08-14T15:31:36.315Z,62.60
2022-08-14T15:34:45.031Z,62.20
2022-08-14T15:37:10.959Z,62.70
2022-08-14T15:39:41.502Z,62.70
2022-08-14T15:42:14.623Z,63.00
2022-08-14T15:44:57.206Z,63.50
2022-08-14T15:47:29.899Z,64.70
2022-08-14T15:49:59.709Z,64.40
2022-08-14T15:52:35.100Z,64.30
2022-08-14T15:55:08.053Z,64.00
2022-08-14T15:57:36.167Z,65.70
2022-08-14T16:00:43.919Z,65.80
2022-08-14T16:03:15.906Z,65.60
2022-08-14T16:05:44.538Z,65.00
2022-08-14T16:08:26.871Z,65.20
2022-08-14T16:10:58.848Z,65.60
2022-08-14T16:13:41.767Z,66.30
2022-08-14T16:16:47.432Z,66.70
2022-08-14T16:18:59.626Z,66.90
2022-08-14T16:21:31.574Z,67.00
2022-08-14T16:24:00.429Z,67.40
2022-08-14T16:26:29.835Z,67.30
2022-08-14T16:29:04.838Z,67.20
2022-08-14T16:31:36.086Z,66.80
2022-08-14T16:34:44.557Z,66.60
2022-08-14T16:36:54.626Z,66.60
2022-08-14T16:39:22.533Z,66.30
2022-08-14T16:41:52.236Z,66.50
2022-08-14T16:44:21.978Z,66.40
2022-08-14T16:47:03.902Z,66.50
2022-08-14T16:50:02.749Z,66.20
2022-08-14T16:52:26.037Z,66.40
2022-08-14T16:55:07.555Z,68.30
2022-08-14T16:57:46.771Z,68.60
2022-08-14T17:00:32.968Z,69.10
2022-08-14T17:03:11.628Z,69.50
2022-08-14T17:05:41.731Z,68.50
2022-08-14T17:08:31.591Z,67.90
2022-08-14T17:11:11.918Z,67.10
2022-08-14T17:13:58.081Z,66.70
2022-08-14T17:16:35.964Z,66.80
2022-08-14T17:19:05.659Z,66.80
2022-08-14T17:21:38.471Z,68.80
2022-08-14T17:24:56.206Z,68.30
2022-08-14T17:26:59.827Z,69.00
2022-08-14T17:29:32.019Z,68.20
2022-08-14T17:32:01.866Z,68.00
2022-08-14T17:34:49.425Z,68.20
2022-08-14T17:37:30.428Z,68.70
2022-08-14T17:40:02.106Z,68.80
2022-08-14T17:42:51.571Z,68.60
2022-08-14T17:45:41.151Z,69.20
2022-08-14T17:49:13.949Z,73.40
2022-08-14T17:51:12.412Z,74.90
2022-08-14T17:53:53.460Z,76.70
2022-08-14T17:56:30.835Z,76.80
2022-08-14T17:59:05.725Z,77.90
2022-08-14T18:01:38.684Z,78.50
2022-08-14T18:04:24.796Z,77.90
2022-08-14T18:07:16.881Z,77.00
2022-08-14T18:09:56.997Z,76.70
2022-08-14T18:12:32.886Z,76.70
2022-08-14T18:15:16.205Z,78.30
2022-08-14T18:17:53.291Z,78.70
2022-08-14T18:21:41.044Z,78.20
2022-08-14T18:23:13.839Z,79.00
2022-08-14T18:25:54.511Z,79.90
2022-08-14T18:28:47.827Z,80.50
2022-08-14T18:31:21.672Z,81.10
2022-08-14T18:33:58.562Z,81.30
2022-08-14T18:36:47.719Z,81.90
2022-08-14T18:40:02.285Z,81.90
2022-08-14T18:42:23.495Z,81.90
2022-08-14T18:44:50.891Z,82.30
2022-08-14T18:47:23.393Z,82.60
2022-08-14T18:49:58.352Z,82.10
2022-08-14T18:52:40.124Z,83.50
2022-08-14T18:55:15.983Z,83.90
2022-08-14T18:57:58.045Z,83.40
2022-08-14T19:00:39.799Z,83.20
2022-08-14T19:03:11.451Z,83.30
2022-08-14T19:05:41.247Z,83.90
2022-08-14T19:08:17.874Z,84.60
2022-08-14T19:10:51.958Z,85.40
2022-08-14T19:13:44.689Z,85.90
2022-08-14T19:16:18.617Z,86.80
2022-08-14T19:19:01.312Z,87.40
2022-08-14T19:21:32.806Z,87.80
2022-08-14T19:24:29.333Z,88.00
2022-08-14T19:27:23.665Z,88.30
2022-08-14T19:30:10.781Z,90.10
2022-08-14T19:32:52.186Z,90.10
2022-08-14T19:35:24.363Z,90.30
2022-08-14T19:37:54.895Z,90.50
2022-08-14T19:40:39.180Z,90.90
2022-08-14T19:43:09.563Z,91.10
2022-08-14T19:45:38.179Z,91.20
2022-08-14T19:48:12.799Z,91.30
2022-08-14T19:50:44.973Z,91.50
2022-08-14T19:53:17.534Z,92.10
2022-08-14T19:55:59.751Z,92.20
2022-08-14T19:58:54.768Z,92.20
2022-08-14T20:01:37.405Z,92.50
2022-08-14T20:04:45.979Z,93.20
2022-08-14T20:07:00.158Z,93.70
2022-08-14T20:11:06.555Z,93.90
2022-08-14T20:12:29.251Z,94.10
2022-08-14T20:15:17.816Z,94.20
2022-08-14T20:17:52.710Z,94.90
2022-08-14T20:20:30.687Z,95.40
2022-08-14T20:23:10.698Z,95.30
2022-08-14T20:25:45.210Z,95.60
2022-08-14T20:28:33.024Z,96.20
2022-08-14T20:31:14.336Z,96.80
2022-08-14T20:34:03.406Z,97.10
2022-08-14T20:36:30.804Z,97.20
2022-08-14T20:39:00.347Z,97.60
2022-08-14T20:41:27.463Z,98.30
2022-08-14T20:44:15.867Z,98.60
2022-08-14T20:46:47.882Z,99.50
2022-08-14T20:49:18.544Z,99.80
2022-08-14T20:51:58.957Z,99.90
2022-08-14T20:54:33.569Z,99.90
2022-08-14T20:57:10.535Z,99.90
2022-08-14T20:59:43.911Z,99.90
2022-08-14T21:02:46.906Z,99.90
2022-08-14T21:05:19.589Z,99.90
2022-08-14T21:07:50.344Z,99.90
2022-08-14T21:10:34.122Z,99.90
2022-08-14T21:13:26.256Z,99.90
2022-08-14T21:15:57.651Z,99.90
2022-08-14T21:18:28.650Z,99.90
2022-08-14T21:20:57.498Z,99.90
2022-08-14T21:23:24.478Z,99.90
2022-08-14T21:25:54.497Z,99.90
2022-08-14T21:28:30.055Z,99.90
2022-08-14T21:31:01.789Z,99.90
2022-08-14T21:33:29.020Z,99.90
2022-08-14T21:35:58.173Z,99.90
2022-08-14T21:38:33.626Z,99.90
2022-08-14T21:41:42.557Z,99.90
2022-08-14T21:44:18.009Z,99.90
2022-08-14T21:46:55.683Z,99.90
2022-08-14T21:49:34.098Z,99.90
2022-08-14T21:52:50.893Z,99.90
2022-08-14T21:54:56.143Z,99.90
2022-08-14T21:57:56.631Z,99.90
2022-08-14T22:00:35.326Z,99.90
2022-08-14T22:03:08.845Z,99.90
2022-08-14T22:05:38.171Z,99.90
2022-08-14T22:08:06.556Z,99.90
2022-08-14T22:10:35.023Z,99.90
2022-08-14T22:13:03.193Z,99.90
2022-08-14T22:15:32.450Z,99.90
2022-08-14T22:18:00.346Z,99.90
2022-08-14T22:20:29.939Z,99.90
2022-08-14T22:22:58.388Z,99.90
2022-08-14T22:25:33.330Z,99.90
2022-08-14T22:28:03.362Z,99.90
2022-08-14T22:30:30.585Z,99.90
2022-08-14T22:32:58.589Z,99.90
2022-08-14T22:35:27.927Z,99.90
2022-08-14T22:38:35.013Z,99.90
2022-08-14T22:41:06.531Z,99.90
2022-08-14T22:43:35.105Z,99.90
2022-08-14T22:46:14.590Z,99.90
2022-08-14T22:48:44.493Z,99.90
2022-08-14T22:51:17.777Z,99.90
2022-08-14T22:53:46.225Z,99.90
2022-08-14T22:56:20.666Z,99.90
2022-08-14T22:58:49.900Z,99.90
2022-08-14T23:01:57.172Z,99.90
2022-08-14T23:04:35.416Z,99.90
2022-08-14T23:07:22.871Z,99.90
2022-08-14T23:10:33.480Z,99.90
2022-08-14T23:12:54.802Z,99.90
2022-08-14T23:15:23.547Z,99.90
2022-08-14T23:17:51.156Z,99.90
2022-08-14T23:20:22.362Z,99.90
2022-08-14T23:22:52.468Z,99.90
2022-08-14T23:25:57.158Z,99.90
2022-08-14T23:28:34.348Z,99.90
2022-08-14T23:31:05.855Z,99.90
2022-08-14T23:33:35.289Z,99.90
2022-08-14T23:36:31.964Z,99.90
2022-08-14T23:38:53.551Z,99.90
2022-08-14T23:41:21.023Z,99.90
2022-08-14T23:43:50.489Z,99.90
2022-08-14T23:46:19.300Z,99.90
2022-08-14T23:48:46.638Z,99.90
2022-08-14T23:51:16.084Z,99.90
2022-08-14T23:53:48.086Z,99.90
2022-08-14T23:56:19.404Z,99.90
2022-08-14T23:58:57.412Z,99.90
